createdAt,value
2023-05-08T00:00:50.792Z,65.19
2023-05-08T00:03:17.699Z,64.86
2023-05-08T00:05:44.546Z,64.65
2023-05-08T00:08:11.340Z,63.19
2023-05-08T00:10:38.115Z,63.58
2023-05-08T00:13:04.993Z,64.09
2023-05-08T00:15:31.763Z,65.17
2023-05-08T00:17:58.755Z,64.17
2023-05-08T00:20:25.604Z,63.00
2023-05-08T00:22:52.379Z,63.59
2023-05-08T00:25:19.090Z,63.11
2023-05-08T00:27:46.000Z,62.24
2023-05-08T00:30:13.698Z,64.33
2023-05-08T00:32:41.070Z,63.38
2023-05-08T00:35:08.209Z,64.38
2023-05-08T00:37:35.341Z,66.00
2023-05-08T00:40:02.553Z,65.38
2023-05-08T00:42:29.447Z,65.80
2023-05-08T00:44:56.375Z,66.46
2023-05-08T00:47:23.532Z,65.46
2023-05-08T00:49:50.482Z,66.13
2023-05-08T00:52:19.384Z,66.32
2023-05-08T00:54:49.627Z,65.78
2023-05-08T00:57:16.957Z,66.11
2023-05-08T00:59:45.549Z,65.81
2023-05-08T01:02:12.594Z,66.09
2023-05-08T01:04:39.742Z,66.03
2023-05-08T01:07:06.517Z,65.55
2023-05-08T01:09:35.924Z,67.41
2023-05-08T01:12:27.576Z,67.08
2023-05-08T01:15:00.497Z,66.41
2023-05-08T01:17:46.456Z,68.08
2023-05-08T01:20:48.582Z,67.26
2023-05-08T01:23:34.358Z,68.39
2023-05-08T01:26:38.413Z,68.64
2023-05-08T01:29:43.104Z,68.55
2023-05-08T01:32:24.999Z,68.11
2023-05-08T01:35:10.926Z,67.94
2023-05-08T01:37:50.068Z,68.13
2023-05-08T01:40:16.859Z,68.21
2023-05-08T01:42:50.973Z,68.00
2023-05-08T01:45:25.909Z,67.19
2023-05-08T01:48:03.771Z,67.19
2023-05-08T01:50:38.582Z,66.85
2023-05-08T01:53:11.141Z,65.79
2023-05-08T01:55:42.345Z,64.94
2023-05-08T01:58:11.721Z,65.52
2023-05-08T02:00:41.562Z,65.25
2023-05-08T02:03:10.909Z,66.01
2023-05-08T02:05:38.724Z,67.26
2023-05-08T02:08:09.345Z,66.81
2023-05-08T02:10:37.266Z,66.65
2023-05-08T02:13:04.983Z,66.90
2023-05-08T02:15:36.654Z,67.30
2023-05-08T02:18:07.446Z,67.65
2023-05-08T02:20:34.438Z,67.60
2023-05-08T02:23:02.674Z,67.33
2023-05-08T02:25:31.185Z,66.84
2023-05-08T02:27:59.160Z,66.58
2023-05-08T02:30:27.800Z,66.43
2023-05-08T02:32:59.612Z,66.29
2023-05-08T02:35:29.409Z,65.35
2023-05-08T02:37:58.144Z,66.27
2023-05-08T02:40:27.751Z,66.87
2023-05-08T02:42:55.648Z,66.80
2023-05-08T02:45:27.925Z,65.75
2023-05-08T02:48:20.496Z,66.37
2023-05-08T02:51:10.918Z,66.20
2023-05-08T02:53:45.464Z,67.95
2023-05-08T02:56:22.091Z,68.50
2023-05-08T02:59:19.106Z,68.84
2023-05-08T03:02:09.781Z,68.30
2023-05-08T03:04:45.145Z,68.30
2023-05-08T03:07:12.996Z,66.81
2023-05-08T03:09:50.551Z,66.38
2023-05-08T03:12:23.628Z,67.37
2023-05-08T03:15:13.525Z,67.81
2023-05-08T03:17:43.802Z,67.48
2023-05-08T03:20:15.108Z,66.48
2023-05-08T03:22:44.517Z,66.68
2023-05-08T03:25:14.106Z,68.07
2023-05-08T03:27:41.965Z,68.03
2023-05-08T03:30:09.779Z,67.06
2023-05-08T03:32:40.162Z,68.24
2023-05-08T03:35:09.313Z,68.60
2023-05-08T03:37:36.357Z,68.81
2023-05-08T03:40:03.842Z,69.42
2023-05-08T03:42:31.609Z,68.96
2023-05-08T03:45:01.007Z,68.88
2023-05-08T03:47:29.120Z,68.11
2023-05-08T03:49:57.451Z,68.23
2023-05-08T03:52:26.058Z,69.14
2023-05-08T03:54:53.571Z,69.26
2023-05-08T03:57:20.461Z,70.36
2023-05-08T04:00:00.422Z,70.45
2023-05-08T04:02:28.002Z,70.87
2023-05-08T04:05:10.545Z,70.97
2023-05-08T04:07:50.940Z,71.13
2023-05-08T04:10:29.400Z,71.61
2023-05-08T04:13:02.177Z,71.06
2023-05-08T04:15:31.673Z,70.79
2023-05-08T04:18:06.961Z,70.09
2023-05-08T04:20:34.629Z,70.96
2023-05-08T04:23:03.741Z,71.87
2023-05-08T04:25:33.685Z,71.89
2023-05-08T04:28:02.595Z,72.21
2023-05-08T04:30:31.099Z,72.44
2023-05-08T04:32:59.705Z,73.06
2023-05-08T04:35:26.936Z,73.21
2023-05-08T04:37:54.478Z,72.91
2023-05-08T04:40:21.520Z,72.45
2023-05-08T04:42:48.466Z,72.55
2023-05-08T04:45:18.703Z,72.31
2023-05-08T04:47:45.613Z,72.96
2023-05-08T04:50:12.600Z,73.64
2023-05-08T04:52:39.643Z,73.12
2023-05-08T04:55:07.368Z,73.59
2023-05-08T04:57:36.461Z,74.26
2023-05-08T05:00:05.149Z,74.44
2023-05-08T05:02:35.066Z,75.13
2023-05-08T05:05:02.313Z,75.21
2023-05-08T05:07:29.911Z,75.43
2023-05-08T05:09:57.409Z,74.85
2023-05-08T05:12:24.185Z,74.19
2023-05-08T05:14:51.034Z,74.83
2023-05-08T05:17:18.260Z,74.64
2023-05-08T05:19:45.173Z,75.02
2023-05-08T05:22:12.532Z,74.98
2023-05-08T05:24:40.003Z,74.68
2023-05-08T05:27:06.814Z,75.52
2023-05-08T05:29:33.656Z,75.70
2023-05-08T05:32:00.583Z,75.20
2023-05-08T05:34:27.482Z,74.77
2023-05-08T05:36:54.419Z,74.91
2023-05-08T05:39:21.285Z,74.88
2023-05-08T05:41:48.677Z,74.40
2023-05-08T05:44:15.829Z,73.90
2023-05-08T05:46:44.438Z,74.42
2023-05-08T05:49:12.343Z,75.31
2023-05-08T05:51:39.486Z,75.76
2023-05-08T05:54:06.436Z,75.74
2023-05-08T05:56:33.325Z,74.79
2023-05-08T05:59:00.321Z,74.12
2023-05-08T06:01:29.166Z,73.67
2023-05-08T06:03:56.851Z,73.31
2023-05-08T06:06:23.893Z,72.01
2023-05-08T06:08:50.654Z,71.59
2023-05-08T06:11:17.482Z,71.00
2023-05-08T06:13:44.483Z,70.76
2023-05-08T06:16:12.312Z,70.01
2023-05-08T06:18:39.366Z,70.04
2023-05-08T06:21:06.189Z,68.85
2023-05-08T06:23:33.153Z,65.61
2023-05-08T06:25:59.898Z,66.76
2023-05-08T06:28:27.488Z,68.27
2023-05-08T06:30:54.399Z,67.99
2023-05-08T06:33:21.316Z,67.54
2023-05-08T06:35:48.833Z,64.65
2023-05-08T06:38:15.963Z,65.54
2023-05-08T06:40:44.553Z,65.32
2023-05-08T06:43:12.326Z,64.08
2023-05-08T06:45:39.535Z,62.87
2023-05-08T06:48:07.045Z,62.21
2023-05-08T06:50:33.994Z,62.87
2023-05-08T06:53:00.699Z,62.88
2023-05-08T06:55:27.417Z,61.41
2023-05-08T06:57:57.291Z,62.31
2023-05-08T07:00:24.149Z,61.50
2023-05-08T07:02:52.313Z,60.99
2023-05-08T07:05:19.993Z,63.10
2023-05-08T07:07:47.094Z,63.24
2023-05-08T07:10:14.140Z,62.84
2023-05-08T07:12:41.447Z,62.79
2023-05-08T07:15:24.130Z,62.35
2023-05-08T07:17:52.790Z,60.66
2023-05-08T07:20:19.768Z,59.86
2023-05-08T07:22:46.684Z,60.51
2023-05-08T07:25:13.600Z,60.39
2023-05-08T07:27:40.674Z,61.62
2023-05-08T07:30:08.136Z,62.17
2023-05-08T07:32:35.400Z,61.87
2023-05-08T07:35:02.997Z,61.99
2023-05-08T07:37:29.784Z,65.27
2023-05-08T07:39:56.524Z,65.03
2023-05-08T07:42:23.564Z,63.96
2023-05-08T07:44:54.955Z,63.75
2023-05-08T07:47:22.804Z,62.79
2023-05-08T07:49:49.585Z,62.41
2023-05-08T07:52:16.819Z,63.78
2023-05-08T07:54:44.172Z,62.85
2023-05-08T07:57:11.775Z,62.55
2023-05-08T07:59:38.872Z,61.38
2023-05-08T08:02:05.759Z,60.86
2023-05-08T08:04:32.750Z,61.39
2023-05-08T08:06:59.615Z,61.53
2023-05-08T08:09:29.084Z,61.27
2023-05-08T08:11:55.810Z,59.12
2023-05-08T08:14:22.657Z,57.71
2023-05-08T08:16:49.333Z,60.19
2023-05-08T08:19:16.071Z,58.18
2023-05-08T08:21:43.727Z,58.34
2023-05-08T08:24:10.758Z,58.07
2023-05-08T08:26:37.537Z,58.39
2023-05-08T08:29:04.686Z,57.64
2023-05-08T08:31:31.495Z,58.28
2023-05-08T08:33:58.307Z,57.83
2023-05-08T08:36:25.027Z,57.21
2023-05-08T08:38:52.250Z,56.35
2023-05-08T08:41:19.048Z,56.59
2023-05-08T08:43:46.071Z,56.97
2023-05-08T08:46:15.338Z,58.51
2023-05-08T08:48:47.078Z,58.43
2023-05-08T08:51:22.947Z,58.24
2023-05-08T08:54:05.263Z,58.09
2023-05-08T08:56:33.424Z,54.71
2023-05-08T08:59:01.911Z,55.07
2023-05-08T09:01:30.281Z,55.00
2023-05-08T09:03:59.179Z,54.49
2023-05-08T09:06:27.670Z,54.07
2023-05-08T09:08:58.832Z,54.07
2023-05-08T09:11:25.950Z,54.66
2023-05-08T09:13:52.861Z,55.29
2023-05-08T09:16:23.402Z,54.45
2023-05-08T09:18:50.251Z,53.75
2023-05-08T09:21:17.175Z,53.00
2023-05-08T09:24:04.356Z,53.92
2023-05-08T09:26:39.569Z,52.82
2023-05-08T09:29:10.432Z,52.54
2023-05-08T09:31:41.629Z,52.97
2023-05-08T09:34:09.403Z,52.77
2023-05-08T09:36:36.989Z,50.85
2023-05-08T09:39:03.994Z,51.75
2023-05-08T09:41:30.865Z,52.03
2023-05-08T09:44:03.365Z,52.32
2023-05-08T09:46:30.918Z,50.93
2023-05-08T09:48:59.400Z,51.93
2023-05-08T09:51:29.183Z,52.70
2023-05-08T09:53:57.888Z,51.49
2023-05-08T09:56:30.476Z,51.74
2023-05-08T09:58:57.295Z,50.64
2023-05-08T10:01:31.640Z,50.66
2023-05-08T10:03:59.470Z,51.41
2023-05-08T10:06:28.454Z,52.13
2023-05-08T10:09:08.250Z,52.06
2023-05-08T10:11:35.186Z,51.21
2023-05-08T10:14:01.981Z,53.06
2023-05-08T10:16:30.037Z,51.80
2023-05-08T10:19:02.144Z,51.87
2023-05-08T10:21:30.197Z,53.34
2023-05-08T10:24:04.981Z,52.66
2023-05-08T10:26:37.297Z,53.08
2023-05-08T10:29:11.424Z,54.74
2023-05-08T10:31:44.012Z,52.89
2023-05-08T10:34:17.955Z,51.17
2023-05-08T10:36:46.332Z,52.68
2023-05-08T10:39:15.531Z,51.43
2023-05-08T10:41:42.849Z,51.97
2023-05-08T10:44:10.796Z,52.82
2023-05-08T10:46:40.959Z,53.33
2023-05-08T10:49:20.415Z,52.97
2023-05-08T10:52:16.981Z,52.91
2023-05-08T10:55:04.776Z,50.92
2023-05-08T10:57:33.906Z,51.80
2023-05-08T11:00:00.976Z,51.84
2023-05-08T11:02:37.021Z,50.65
2023-05-08T11:05:17.713Z,50.21
2023-05-08T11:07:57.499Z,51.19
2023-05-08T11:10:32.160Z,52.02
2023-05-08T11:13:01.338Z,52.25
2023-05-08T11:15:38.882Z,53.02
2023-05-08T11:18:11.904Z,52.26
2023-05-08T11:20:40.930Z,52.29
2023-05-08T11:23:27.412Z,53.38
2023-05-08T11:26:12.224Z,54.49
2023-05-08T11:28:41.174Z,53.38
2023-05-08T11:31:08.772Z,52.00
2023-05-08T11:33:40.969Z,51.45
2023-05-08T11:36:19.215Z,52.61
2023-05-08T11:39:07.766Z,53.77
2023-05-08T11:41:34.827Z,52.17
2023-05-08T11:44:04.806Z,49.38
2023-05-08T11:46:51.945Z,50.35
2023-05-08T11:49:29.842Z,50.75
2023-05-08T11:51:59.255Z,50.18
2023-05-08T11:54:30.542Z,50.25
2023-05-08T11:56:57.741Z,51.74
2023-05-08T11:59:24.623Z,48.86
2023-05-08T12:04:21.803Z,47.66
2023-05-08T12:06:50.997Z,48.99
2023-05-08T12:09:18.873Z,49.95
2023-05-08T12:11:45.739Z,50.16
2023-05-08T12:14:15.081Z,50.25
2023-05-08T12:16:41.883Z,48.84
2023-05-08T12:19:13.331Z,49.97
2023-05-08T12:21:47.719Z,50.44
2023-05-08T12:24:25.511Z,51.76
2023-05-08T12:26:56.615Z,49.44
2023-05-08T12:29:24.066Z,51.16
2023-05-08T12:31:52.765Z,50.90
2023-05-08T12:34:20.582Z,50.86
2023-05-08T12:36:47.415Z,50.02
2023-05-08T12:39:18.877Z,50.37
2023-05-08T12:41:52.926Z,50.27
2023-05-08T12:44:24.330Z,51.13
2023-05-08T12:46:53.053Z,51.14
2023-05-08T12:49:32.481Z,52.25
2023-05-08T12:52:07.310Z,51.49
2023-05-08T12:54:39.274Z,51.29
2023-05-08T12:57:13.441Z,51.33
2023-05-08T12:59:41.345Z,52.39
2023-05-08T13:02:19.333Z,52.09
2023-05-08T13:04:46.588Z,54.35
2023-05-08T13:07:13.606Z,53.91
2023-05-08T13:09:51.897Z,55.17
2023-05-08T13:12:18.685Z,56.46
2023-05-08T13:14:45.454Z,55.36
2023-05-08T13:17:17.577Z,55.89
2023-05-08T13:19:44.364Z,56.83
2023-05-08T13:22:11.041Z,58.27
2023-05-08T13:24:37.973Z,60.36
2023-05-08T13:27:04.657Z,60.52
2023-05-08T13:29:31.428Z,60.37
2023-05-08T13:31:58.190Z,60.88
2023-05-08T13:34:25.686Z,62.96
2023-05-08T13:36:52.586Z,63.10
2023-05-08T13:39:19.377Z,64.59
2023-05-08T13:41:46.133Z,63.49
2023-05-08T13:44:12.869Z,65.11
2023-05-08T13:46:39.616Z,65.91
2023-05-08T13:49:06.311Z,65.42
2023-05-08T13:51:33.074Z,64.94
2023-05-08T13:53:59.794Z,64.75
2023-05-08T13:56:26.581Z,65.16
2023-05-08T13:58:53.304Z,66.63
2023-05-08T14:01:26.400Z,67.44
2023-05-08T14:03:54.589Z,67.75
2023-05-08T14:06:21.607Z,68.52
2023-05-08T14:08:50.920Z,69.17
2023-05-08T14:11:19.038Z,69.89
2023-05-08T14:13:46.103Z,70.29
2023-05-08T14:16:14.470Z,70.57
2023-05-08T14:18:41.247Z,71.43
2023-05-08T14:21:08.111Z,71.63
2023-05-08T14:23:36.137Z,70.84
2023-05-08T14:26:03.063Z,70.25
2023-05-08T14:28:29.938Z,71.28
2023-05-08T14:30:57.016Z,71.15
2023-05-08T14:33:23.928Z,70.05
2023-05-08T14:35:50.998Z,69.75
2023-05-08T14:38:17.686Z,68.77
2023-05-08T14:40:44.646Z,67.74
2023-05-08T14:43:11.369Z,66.35
2023-05-08T14:45:38.383Z,67.72
2023-05-08T14:48:06.240Z,58.36
2023-05-08T14:50:33.077Z,56.04
2023-05-08T14:53:00.084Z,53.64
2023-05-08T14:55:27.171Z,56.88
2023-05-08T14:57:54.591Z,56.53
2023-05-08T15:00:21.507Z,56.32
2023-05-08T15:02:48.404Z,57.32
2023-05-08T15:05:19.892Z,55.42
2023-05-08T15:07:49.580Z,55.41
2023-05-08T15:10:16.495Z,53.51
2023-05-08T15:12:43.458Z,51.14
2023-05-08T15:15:10.724Z,51.11
2023-05-08T15:17:38.018Z,49.41
2023-05-08T15:20:06.202Z,51.63
2023-05-08T15:22:32.983Z,48.49
2023-05-08T15:25:02.860Z,50.48
2023-05-08T15:27:30.387Z,48.76
2023-05-08T15:29:57.412Z,49.06
2023-05-08T15:32:24.878Z,48.94
2023-05-08T15:34:51.937Z,49.66
2023-05-08T15:37:18.704Z,50.27
2023-05-08T15:39:45.509Z,49.07
2023-05-08T15:42:12.203Z,48.93
2023-05-08T15:44:54.151Z,50.11
2023-05-08T15:47:23.379Z,51.92
2023-05-08T15:49:50.986Z,52.23
2023-05-08T15:52:19.712Z,51.22
2023-05-08T15:54:47.160Z,52.67
2023-05-08T15:57:14.184Z,50.67
2023-05-08T15:59:41.270Z,51.33
2023-05-08T16:02:08.614Z,52.50
2023-05-08T16:04:35.799Z,53.17
2023-05-08T16:07:05.306Z,51.95
2023-05-08T16:09:32.106Z,52.44
2023-05-08T16:12:01.427Z,54.18
2023-05-08T16:14:28.254Z,54.62
2023-05-08T16:16:55.066Z,54.51
2023-05-08T16:19:21.844Z,55.32
2023-05-08T16:21:48.661Z,53.93
2023-05-08T16:24:15.490Z,53.24
2023-05-08T16:26:42.234Z,55.37
2023-05-08T16:29:08.955Z,56.82
2023-05-08T16:31:35.962Z,55.98
2023-05-08T16:34:02.770Z,57.27
2023-05-08T16:36:29.688Z,56.74
2023-05-08T16:38:56.528Z,56.85
2023-05-08T16:41:23.376Z,58.13
2023-05-08T16:43:50.065Z,56.90
2023-05-08T16:46:20.775Z,55.39
2023-05-08T16:48:53.486Z,56.74
2023-05-08T16:51:20.541Z,56.73
2023-05-08T16:53:47.305Z,57.51
2023-05-08T16:56:14.028Z,57.36
2023-05-08T16:58:43.244Z,57.34
2023-05-08T17:01:11.729Z,57.31
2023-05-08T17:03:38.832Z,57.67
2023-05-08T17:06:09.335Z,58.75
2023-05-08T17:08:36.177Z,58.16
2023-05-08T17:11:02.978Z,59.10
2023-05-08T17:13:30.174Z,59.50
2023-05-08T17:15:57.803Z,59.97
2023-05-08T17:18:24.700Z,60.54
2023-05-08T17:20:51.404Z,59.95
2023-05-08T17:23:18.172Z,60.23
2023-05-08T17:25:45.071Z,61.61
2023-05-08T17:28:12.074Z,61.81
2023-05-08T17:30:39.015Z,62.33
2023-05-08T17:33:07.230Z,62.41
2023-05-08T17:35:34.351Z,62.59
2023-05-08T17:38:01.136Z,62.88
2023-05-08T17:40:28.874Z,63.46
2023-05-08T17:42:55.815Z,62.87
2023-05-08T17:45:22.543Z,63.31
2023-05-08T17:47:49.640Z,63.50
2023-05-08T17:50:16.527Z,63.55
2023-05-08T17:52:43.451Z,64.13
2023-05-08T17:55:10.661Z,63.81
2023-05-08T17:57:37.455Z,63.44
2023-05-08T18:00:06.123Z,63.69
2023-05-08T18:02:35.402Z,64.24
2023-05-08T18:05:02.314Z,63.86
2023-05-08T18:07:29.187Z,64.24
2023-05-08T18:09:56.052Z,64.29
2023-05-08T18:12:22.789Z,64.31
2023-05-08T18:14:49.558Z,64.65
2023-05-08T18:17:19.276Z,64.89
2023-05-08T18:19:46.693Z,64.96
2023-05-08T18:22:13.674Z,65.27
2023-05-08T18:24:51.853Z,65.12
2023-05-08T18:30:17.068Z,65.84
2023-05-08T18:32:44.003Z,66.10
2023-05-08T18:35:10.913Z,66.52
2023-05-08T18:37:37.818Z,66.50
2023-05-08T18:40:05.257Z,66.47
2023-05-08T18:42:32.035Z,66.52
2023-05-08T18:45:00.353Z,66.52
2023-05-08T18:47:27.043Z,66.70
2023-05-08T18:49:53.959Z,66.87
2023-05-08T18:52:20.735Z,67.19
2023-05-08T18:54:47.605Z,67.08
2023-05-08T18:57:14.472Z,67.29
2023-05-08T18:59:41.307Z,67.56
2023-05-08T19:02:08.039Z,68.34
2023-05-08T19:04:38.181Z,68.46
2023-05-08T19:07:05.004Z,68.99
2023-05-08T19:09:33.723Z,67.49
2023-05-08T19:12:00.623Z,66.63
2023-05-08T19:14:27.513Z,66.59
2023-05-08T19:16:56.331Z,67.98
2023-05-08T19:19:28.373Z,67.96
2023-05-08T19:21:55.300Z,68.40
2023-05-08T19:24:24.138Z,68.75
2023-05-08T19:26:51.042Z,68.97
2023-05-08T19:29:17.796Z,67.76
2023-05-08T19:31:44.670Z,67.94
2023-05-08T19:34:11.638Z,68.69
2023-05-08T19:36:38.491Z,68.70
2023-05-08T19:39:05.539Z,69.02
2023-05-08T19:41:32.589Z,69.47
2023-05-08T19:43:59.633Z,68.91
2023-05-08T19:46:26.723Z,68.85
2023-05-08T19:48:53.875Z,69.47
2023-05-08T19:51:20.952Z,70.27
2023-05-08T19:53:47.790Z,70.65
2023-05-08T19:56:14.723Z,70.85
2023-05-08T19:58:41.626Z,69.23
2023-05-08T20:01:09.030Z,68.89
2023-05-08T20:03:40.281Z,69.79
2023-05-08T20:06:07.365Z,70.50
2023-05-08T20:08:34.278Z,69.50
2023-05-08T20:11:04.020Z,69.84
2023-05-08T20:13:30.807Z,69.05
2023-05-08T20:15:59.023Z,69.86
2023-05-08T20:18:26.400Z,70.12
2023-05-08T20:20:53.366Z,69.54
2023-05-08T20:23:20.199Z,69.40
2023-05-08T20:25:48.107Z,69.27
2023-05-08T20:28:16.031Z,69.37
2023-05-08T20:30:43.277Z,69.49
2023-05-08T20:33:10.414Z,70.77
2023-05-08T20:35:37.602Z,71.26
2023-05-08T20:38:04.626Z,71.52
2023-05-08T20:40:34.641Z,71.48
2023-05-08T20:43:01.648Z,71.62
2023-05-08T20:45:28.648Z,71.92
2023-05-08T20:47:55.694Z,70.65
2023-05-08T20:50:22.556Z,70.28
2023-05-08T20:52:49.888Z,71.04
2023-05-08T20:55:16.874Z,71.72
2023-05-08T20:57:43.678Z,71.87
2023-05-08T21:00:10.980Z,71.98
2023-05-08T21:02:40.190Z,72.04
2023-05-08T21:05:07.461Z,71.94
2023-05-08T21:07:34.796Z,72.05
2023-05-08T21:10:01.974Z,72.16
2023-05-08T21:12:28.904Z,71.90
2023-05-08T21:14:55.834Z,71.85
2023-05-08T21:17:22.740Z,72.02
2023-05-08T21:19:49.496Z,72.10
2023-05-08T21:22:17.485Z,72.06
2023-05-08T21:24:45.037Z,71.94
2023-05-08T21:27:11.957Z,71.90
2023-05-08T21:29:39.178Z,72.22
2023-05-08T21:32:08.759Z,72.47
2023-05-08T21:34:36.837Z,71.90
2023-05-08T21:37:03.707Z,71.61
2023-05-08T21:39:30.468Z,71.76
2023-05-08T21:41:57.311Z,72.26
2023-05-08T21:44:24.169Z,72.82
2023-05-08T21:46:50.904Z,72.91
2023-05-08T21:49:17.788Z,73.16
2023-05-08T21:51:45.839Z,72.38
2023-05-08T21:54:12.755Z,73.15
2023-05-08T21:56:39.720Z,73.78
2023-05-08T21:59:07.471Z,73.45
2023-05-08T22:01:34.312Z,73.53
2023-05-08T22:04:01.325Z,73.43
2023-05-08T22:06:28.154Z,73.56
2023-05-08T22:08:55.169Z,72.92
2023-05-08T22:11:22.375Z,73.78
2023-05-08T22:13:50.458Z,73.64
2023-05-08T22:16:18.086Z,74.58
2023-05-08T22:18:44.838Z,74.49
2023-05-08T22:21:11.570Z,74.49
2023-05-08T22:23:38.390Z,74.31
2023-05-08T22:26:05.232Z,74.53
2023-05-08T22:28:32.259Z,75.10
2023-05-08T22:30:59.200Z,75.01
2023-05-08T22:33:26.075Z,74.73
2023-05-08T22:35:52.838Z,74.51
2023-05-08T22:38:19.555Z,74.14
2023-05-08T22:40:47.778Z,74.82
2023-05-08T22:43:14.801Z,75.50
2023-05-08T22:45:41.706Z,74.63
2023-05-08T22:48:08.673Z,75.18
2023-05-08T22:50:35.626Z,75.58
2023-05-08T22:53:07.916Z,75.43
2023-05-08T22:55:35.365Z,75.83
2023-05-08T22:58:03.890Z,75.56
2023-05-08T23:00:30.729Z,75.76
2023-05-08T23:02:57.486Z,76.02
2023-05-08T23:05:24.239Z,75.94
2023-05-08T23:07:51.096Z,76.17
2023-05-08T23:10:18.111Z,76.52
2023-05-08T23:12:47.661Z,76.63
2023-05-08T23:15:14.651Z,76.60
2023-05-08T23:17:41.468Z,76.61
2023-05-08T23:20:08.996Z,76.55
2023-05-08T23:22:35.623Z,76.72
2023-05-08T23:25:02.475Z,76.66
2023-05-08T23:27:29.262Z,76.84
2023-05-08T23:29:56.161Z,77.12
2023-05-08T23:32:22.986Z,76.85
2023-05-08T23:34:49.803Z,77.13
2023-05-08T23:37:16.502Z,76.93
2023-05-08T23:39:43.246Z,76.20
2023-05-08T23:42:09.993Z,76.69
2023-05-08T23:44:36.783Z,76.55
2023-05-08T23:47:03.741Z,76.74
2023-05-08T23:49:30.635Z,76.61
2023-05-08T23:51:57.286Z,76.59
2023-05-08T23:54:24.084Z,77.01
2023-05-08T23:56:50.808Z,76.84
2023-05-08T23:59:17.593Z,76.49
